Time;durP1;ratioP1;P1;durP2;ratioP2;P2;SDS_P1;SDS_P2;PMS_P1;PMS_P2;Temp;Humidity;BMP_temperature;BMP_pressure;BME280_temperature;BME280_humidity;BME280_pressure;Samples;Min_cycle;Max_cycle;Signal;HPM_P1;HPM_P2
2021/06/19 00:02:17;;;;;;;10.70;9.27;;;20.90;88.20;;;;;;5119494;28;20359;-70
2021/06/19 00:04:42;;;;;;;10.30;8.60;;;20.80;88.10;;;;;;5119448;28;20027;-70
2021/06/19 00:07:08;;;;;;;10.55;8.27;;;20.90;88.20;;;;;;5118985;28;20055;-70
2021/06/19 00:09:34;;;;;;;12.90;7.70;;;20.90;88.00;;;;;;5119034;28;20035;-70
2021/06/19 00:12:01;;;;;;;8.52;7.00;;;20.90;87.90;;;;;;5119238;28;20072;-70
2021/06/19 00:14:27;;;;;;;11.35;7.18;;;20.90;88.10;;;;;;5119374;28;20051;-70
2021/06/19 00:16:53;;;;;;;9.48;7.95;;;21.00;88.00;;;;;;5119130;28;20039;-70
2021/06/19 00:19:19;;;;;;;9.73;7.68;;;21.00;87.90;;;;;;5118840;28;20038;-70
2021/06/19 00:21:45;;;;;;;8.90;7.88;;;21.00;87.70;;;;;;5119090;28;20023;-70
2021/06/19 00:24:11;;;;;;;8.93;7.97;;;20.90;88.20;;;;;;5118790;28;20419;-70
2021/06/19 00:26:38;;;;;;;11.45;7.45;;;20.80;88.80;;;;;;5118607;28;20032;-70
2021/06/19 00:29:04;;;;;;;12.57;9.20;;;20.70;88.60;;;;;;5118631;28;20031;-70
2021/06/19 00:31:30;;;;;;;9.18;8.05;;;20.70;88.30;;;;;;5118429;28;20039;-70
2021/06/19 00:33:56;;;;;;;9.75;8.75;;;20.70;88.30;;;;;;5118522;28;20056;-70
2021/06/19 00:36:22;;;;;;;13.15;8.57;;;20.70;88.80;;;;;;5118373;28;20030;-70
2021/06/19 00:38:48;;;;;;;12.25;9.55;;;20.60;89.40;;;;;;5118448;28;20110;-70
2021/06/19 00:41:13;;;;;;;11.57;8.07;;;20.60;89.00;;;;;;5118392;28;20069;-70
2021/06/19 00:43:39;;;;;;;9.75;7.45;;;20.60;89.30;;;;;;5118398;28;20040;-70
2021/06/19 00:46:05;;;;;;;13.05;8.57;;;20.60;89.00;;;;;;5118544;28;20068;-70
2021/06/19 00:48:30;;;;;;;10.52;7.75;;;20.60;89.30;;;;;;5118518;28;20035;-70
2021/06/19 00:50:56;;;;;;;8.98;8.10;;;20.60;89.20;;;;;;5118559;27;20030;-70
2021/06/19 00:53:22;;;;;;;11.90;8.23;;;20.60;89.00;;;;;;5118160;28;20055;-70
2021/06/19 00:55:47;;;;;;;10.13;8.02;;;20.60;89.10;;;;;;5118005;28;20032;-70
2021/06/19 00:58:14;;;;;;;11.63;8.60;;;20.60;88.90;;;;;;5118063;28;20054;-70
2021/06/19 01:00:40;;;;;;;10.32;9.13;;;20.60;88.80;;;;;;5118004;28;20432;-70
2021/06/19 01:03:05;;;;;;;15.07;8.75;;;20.60;88.80;;;;;;5117916;28;20056;-70
2021/06/19 01:05:32;;;;;;;12.32;8.27;;;20.60;88.70;;;;;;5118206;28;20107;-70
2021/06/19 01:07:59;;;;;;;9.82;8.55;;;20.60;88.50;;;;;;5118018;27;20024;-70
2021/06/19 01:10:26;;;;;;;10.38;9.38;;;20.70;88.20;;;;;;5117301;28;20031;-70
2021/06/19 01:12:52;;;;;;;10.25;9.15;;;20.70;87.90;;;;;;5118051;28;20356;-70
2021/06/19 01:15:18;;;;;;;9.90;8.80;;;20.80;87.70;;;;;;5117966;28;20027;-70
2021/06/19 01:17:45;;;;;;;10.13;9.07;;;20.90;87.60;;;;;;5118016;28;20099;-70
2021/06/19 01:20:12;;;;;;;10.75;9.68;;;21.00;87.10;;;;;;5117730;28;20431;-70
2021/06/19 01:22:40;;;;;;;10.70;8.80;;;21.10;87.00;;;;;;5117909;28;20031;-70
2021/06/19 01:25:09;;;;;;;11.02;8.68;;;21.10;86.70;;;;;;5117910;28;20028;-70
2021/06/19 01:27:36;;;;;;;12.60;9.13;;;21.10;86.70;;;;;;5117522;28;20023;-70
2021/06/19 01:30:06;;;;;;;9.40;8.50;;;21.10;86.50;;;;;;5117558;28;20109;-70
2021/06/19 01:32:34;;;;;;;9.52;8.45;;;21.20;86.20;;;;;;5117420;28;20040;-70
2021/06/19 01:35:00;;;;;;;11.43;8.57;;;21.20;86.00;;;;;;5117304;28;20032;-70
2021/06/19 01:37:27;;;;;;;10.10;9.15;;;21.20;85.80;;;;;;5117732;28;20023;-70
2021/06/19 01:40:12;;;;;;;12.13;9.27;;;21.20;85.60;;;;;;5117690;28;20027;-70
2021/06/19 01:42:39;;;;;;;11.00;9.90;;;21.10;85.90;;;;;;5117563;28;20092;-70
2021/06/19 01:45:10;;;;;;;9.65;8.65;;;21.10;86.00;;;;;;5117694;28;20336;-70
2021/06/19 01:47:36;;;;;;;10.02;8.65;;;21.10;86.30;;;;;;5117290;28;20031;-70
2021/06/19 01:50:13;;;;;;;11.35;10.18;;;21.10;86.20;;;;;;5117304;28;20030;-70
2021/06/19 01:52:39;;;;;;;10.55;9.50;;;21.10;85.70;;;;;;5117540;28;20024;-70
2021/06/19 01:55:06;;;;;;;9.25;8.35;;;21.10;85.90;;;;;;5117080;28;20415;-70
2021/06/19 01:57:32;;;;;;;11.35;9.73;;;21.20;85.60;;;;;;5117172;28;20026;-70
2021/06/19 02:00:05;;;;;;;12.48;11.18;;;21.20;85.70;;;;;;5117428;28;20089;-70
2021/06/19 02:02:30;;;;;;;13.52;10.50;;;21.20;86.70;;;;;;5117102;28;20032;-70
2021/06/19 02:04:56;;;;;;;16.52;10.68;;;21.20;86.80;;;;;;5117056;28;20114;-70
2021/06/19 02:07:22;;;;;;;11.68;9.20;;;21.20;86.30;;;;;;5117355;28;20038;-70
2021/06/19 02:09:47;;;;;;;14.70;10.38;;;21.30;86.50;;;;;;5117357;28;20058;-70
2021/06/19 02:12:13;;;;;;;11.73;9.45;;;21.30;86.80;;;;;;5116965;28;20028;-70
2021/06/19 02:14:39;;;;;;;14.05;10.90;;;21.30;86.50;;;;;;5117384;28;20032;-70
2021/06/19 02:17:04;;;;;;;10.82;8.10;;;21.20;86.70;;;;;;5117189;28;20031;-70
2021/06/19 02:19:30;;;;;;;7.95;7.25;;;21.20;84.50;;;;;;5117285;28;20181;-70
2021/06/19 02:21:56;;;;;;;8.43;7.38;;;21.20;85.10;;;;;;5121043;28;20023;-70
2021/06/19 02:24:21;;;;;;;9.40;8.50;;;21.20;84.90;;;;;;5121406;28;20030;-70
2021/06/19 02:26:48;;;;;;;10.77;7.65;;;21.10;85.40;;;;;;5121293;28;20416;-70
2021/06/19 02:29:14;;;;;;;9.02;6.97;;;21.10;85.50;;;;;;5121270;28;20031;-70
2021/06/19 02:31:40;;;;;;;10.32;8.55;;;21.00;85.50;;;;;;5120786;28;20051;-70
2021/06/19 02:34:05;;;;;;;8.98;7.45;;;20.90;86.60;;;;;;5121204;28;20020;-70
2021/06/19 02:36:31;;;;;;;10.07;8.15;;;20.90;86.60;;;;;;5120689;28;20119;-70
2021/06/19 02:38:57;;;;;;;10.55;8.13;;;20.90;86.80;;;;;;5120779;28;20030;-70
2021/06/19 02:41:22;;;;;;;12.23;7.80;;;20.80;86.50;;;;;;5121091;28;20034;-70
2021/06/19 02:43:48;;;;;;;8.98;8.00;;;20.80;86.20;;;;;;5121095;28;20031;-70
2021/06/19 02:46:14;;;;;;;10.05;6.95;;;20.80;86.40;;;;;;5120603;28;20323;-70
2021/06/19 02:48:40;;;;;;;11.32;8.40;;;20.80;86.40;;;;;;5120889;28;20019;-70
2021/06/19 02:51:06;;;;;;;10.88;7.47;;;20.80;86.30;;;;;;5120855;28;20032;-70
2021/06/19 02:53:32;;;;;;;10.30;7.95;;;20.80;86.40;;;;;;5120535;28;20115;-70
2021/06/19 02:55:57;;;;;;;12.18;9.30;;;20.90;86.40;;;;;;5120273;28;20080;-70
2021/06/19 02:58:23;;;;;;;9.88;7.72;;;20.80;86.90;;;;;;5120716;28;20015;-70
2021/06/19 03:00:50;;;;;;;8.93;8.02;;;20.80;86.70;;;;;;5120404;28;20312;-70
2021/06/19 03:03:16;;;;;;;11.02;8.57;;;20.90;86.40;;;;;;5120609;28;20358;-70
2021/06/19 03:05:41;;;;;;;9.52;7.53;;;20.90;86.50;;;;;;5120244;28;20059;-70
2021/06/19 03:08:08;;;;;;;8.68;7.80;;;21.00;86.90;;;;;;5120230;28;20114;-70
2021/06/19 03:10:38;;;;;;;12.00;8.20;;;20.90;87.00;;;;;;5120470;28;20034;-70
2021/06/19 03:13:05;;;;;;;10.02;9.02;;;21.00;87.20;;;;;;5120259;28;20036;-70
2021/06/19 03:15:31;;;;;;;10.20;8.32;;;21.00;87.00;;;;;;5120317;28;20024;-70
2021/06/19 03:17:56;;;;;;;8.02;7.13;;;20.90;87.00;;;;;;5120401;28;20421;-70
2021/06/19 03:20:22;;;;;;;9.98;8.10;;;20.90;86.90;;;;;;5120114;28;20460;-70
2021/06/19 03:22:53;;;;;;;9.20;7.88;;;20.90;87.30;;;;;;5120258;28;20028;-70
2021/06/19 03:25:31;;;;;;;9.30;7.88;;;20.90;87.10;;;;;;5120190;28;20059;-70
2021/06/19 03:27:59;;;;;;;10.43;8.90;;;20.80;87.20;;;;;;5119909;28;20111;-70
2021/06/19 03:30:26;;;;;;;9.38;8.38;;;20.70;87.30;;;;;;5119622;28;20047;-70
2021/06/19 03:32:52;;;;;;;9.00;7.97;;;20.60;87.80;;;;;;5118793;28;20114;-70
2021/06/19 03:35:19;;;;;;;11.38;8.65;;;20.50;88.30;;;;;;5119625;28;20419;-70
2021/06/19 03:37:45;;;;;;;10.38;8.30;;;20.60;88.00;;;;;;5119670;28;20020;-70
2021/06/19 03:40:12;;;;;;;14.00;9.32;;;20.60;88.00;;;;;;5119912;28;20110;-70
2021/06/19 03:42:40;;;;;;;12.20;8.77;;;20.60;88.00;;;;;;5119782;28;20020;-70
2021/06/19 03:45:08;;;;;;;9.13;8.27;;;20.70;88.10;;;;;;5119815;28;20036;-70
2021/06/19 03:47:33;;;;;;;10.80;9.32;;;20.70;88.20;;;;;;5119812;28;20062;-70
2021/06/19 03:49:59;;;;;;;12.48;8.77;;;20.80;88.20;;;;;;5119753;28;20027;-70
2021/06/19 03:52:25;;;;;;;9.95;8.50;;;20.80;87.90;;;;;;5119675;28;20450;-70
2021/06/19 03:54:51;;;;;;;9.93;8.18;;;20.80;88.00;;;;;;5119522;28;20039;-70
2021/06/19 03:57:24;;;;;;;10.07;9.07;;;20.80;88.20;;;;;;5119307;28;20315;-70
2021/06/19 03:59:50;;;;;;;8.80;7.82;;;20.80;88.30;;;;;;5119581;28;20036;-70
2021/06/19 04:02:16;;;;;;;10.70;8.50;;;20.80;88.60;;;;;;5119192;28;20028;-70
2021/06/19 04:04:42;;;;;;;10.57;8.23;;;20.90;88.30;;;;;;5118127;28;20030;-70
2021/06/19 04:07:08;;;;;;;9.23;8.32;;;20.90;88.50;;;;;;5119375;28;20020;-70
2021/06/19 04:09:33;;;;;;;9.73;8.73;;;20.90;88.00;;;;;;5119047;28;20106;-70
2021/06/19 04:11:59;;;;;;;9.10;8.20;;;21.00;87.40;;;;;;5119283;28;20019;-70
2021/06/19 04:14:25;;;;;;;11.02;9.00;;;21.00;87.70;;;;;;5119390;28;20027;-70
2021/06/19 04:16:50;;;;;;;9.60;8.60;;;21.10;87.30;;;;;;5118905;28;20031;-70
2021/06/19 04:19:16;;;;;;;10.98;8.30;;;21.10;87.40;;;;;;5119143;28;20038;-70
2021/06/19 04:21:41;;;;;;;11.88;10.32;;;21.10;87.80;;;;;;5118786;28;20051;-70
2021/06/19 04:24:07;;;;;;;10.95;9.85;;;21.10;87.60;;;;;;5119086;28;20023;-70
2021/06/19 04:26:33;;;;;;;15.75;10.13;;;21.10;87.40;;;;;;5118676;28;20020;-70
2021/06/19 04:28:59;;;;;;;10.68;9.27;;;21.10;87.20;;;;;;5118945;28;20023;-70
2021/06/19 04:31:24;;;;;;;12.32;10.00;;;21.20;87.20;;;;;;5118450;28;20047;-70
2021/06/19 04:33:50;;;;;;;10.38;8.82;;;21.30;87.70;;;;;;5118576;28;20076;-70
2021/06/19 04:36:17;;;;;;;12.23;8.88;;;21.30;88.10;;;;;;5118710;28;20019;-70
2021/06/19 04:38:43;;;;;;;9.90;8.32;;;21.30;89.10;;;;;;5118842;28;20035;-70
2021/06/19 04:41:21;;;;;;;9.23;8.27;;;21.40;89.00;;;;;;5118774;28;20015;-70
2021/06/19 04:46:13;;;;;;;23.52;9.23;;;21.50;88.30;;;;;;5118343;28;20102;-70
2021/06/19 04:48:39;;;;;;;14.02;9.13;;;21.60;87.80;;;;;;5118548;28;20534;-70
2021/06/19 04:51:05;;;;;;;10.48;8.05;;;21.70;88.00;;;;;;5118286;28;20319;-70
2021/06/19 04:53:31;;;;;;;8.15;7.35;;;21.80;88.10;;;;;;5118176;28;20031;-70
2021/06/19 04:56:00;;;;;;;10.95;8.05;;;21.80;88.30;;;;;;5118309;28;20031;-70
2021/06/19 04:58:26;;;;;;;10.45;8.48;;;21.90;88.40;;;;;;5118390;28;20094;-70
2021/06/19 05:00:52;;;;;;;13.80;8.65;;;21.90;88.00;;;;;;5118358;28;20412;-70
2021/06/19 05:03:18;;;;;;;11.63;9.52;;;21.90;87.70;;;;;;5117973;28;20031;-70
2021/06/19 05:05:44;;;;;;;11.07;9.95;;;21.90;85.90;;;;;;5118238;28;20019;-70
2021/06/19 05:08:10;;;;;;;9.43;8.52;;;22.00;85.90;;;;;;5118245;28;20061;-70
2021/06/19 05:10:36;;;;;;;10.10;7.88;;;22.10;85.90;;;;;;5118193;28;20019;-70
2021/06/19 05:13:02;;;;;;;9.88;8.77;;;22.20;87.10;;;;;;5117892;28;20062;-70
2021/06/19 05:15:27;;;;;;;11.27;8.63;;;22.30;87.10;;;;;;5117706;28;20045;-70
2021/06/19 05:17:55;;;;;;;7.90;7.10;;;22.40;86.60;;;;;;5118086;28;20027;-71
2021/06/19 05:20:22;;;;;;;12.93;8.82;;;22.60;86.50;;;;;;5118056;28;20215;-70
2021/06/19 05:22:48;;;;;;;12.30;7.60;;;22.70;85.60;;;;;;5117943;28;20020;-70
2021/06/19 05:25:14;;;;;;;8.10;7.30;;;22.70;86.00;;;;;;5117590;28;20160;-70
2021/06/19 05:27:41;;;;;;;8.00;6.40;;;22.90;86.40;;;;;;5117585;28;20035;-71
2021/06/19 05:30:07;;;;;;;12.10;9.20;;;23.10;87.10;;;;;;5117392;28;20039;-70
2021/06/19 05:32:33;;;;;;;10.35;9.05;;;23.20;83.20;;;;;;5117815;28;20043;-70
2021/06/19 05:34:58;;;;;;;9.25;7.63;;;23.30;81.90;;;;;;5117682;28;20023;-70
2021/06/19 05:37:24;;;;;;;13.15;8.73;;;23.50;83.20;;;;;;5117726;28;20407;-71
2021/06/19 05:39:50;;;;;;;11.48;8.70;;;23.70;80.70;;;;;;5117724;28;20016;-70
2021/06/19 05:42:15;;;;;;;8.20;7.40;;;23.80;81.50;;;;;;5117641;28;20421;-71
2021/06/19 05:44:41;;;;;;;11.50;7.40;;;23.80;82.10;;;;;;5117863;28;20097;-70
2021/06/19 05:47:07;;;;;;;9.93;6.90;;;23.90;81.20;;;;;;5117541;28;20341;-71
2021/06/19 05:49:33;;;;;;;9.98;7.30;;;23.80;81.30;;;;;;5117263;28;20026;-71
2021/06/19 05:51:59;;;;;;;9.27;7.60;;;23.90;83.20;;;;;;5117219;28;20028;-71
2021/06/19 05:54:24;;;;;;;7.78;6.90;;;23.90;83.20;;;;;;5117237;28;20031;-71
2021/06/19 05:56:50;;;;;;;7.53;6.85;;;24.00;83.30;;;;;;5116916;28;20266;-71
2021/06/19 05:59:16;;;;;;;7.88;5.50;;;24.10;83.10;;;;;;5117186;28;20055;-70
2021/06/19 06:01:41;;;;;;;9.90;6.63;;;24.20;83.80;;;;;;5117135;28;20019;-70
2021/06/19 06:04:07;;;;;;;10.15;8.13;;;24.50;82.80;;;;;;5117438;28;20065;-71
2021/06/19 06:06:33;;;;;;;9.63;7.30;;;24.80;78.60;;;;;;5117379;28;20035;-71
2021/06/19 06:08:58;;;;;;;7.60;6.90;;;25.10;79.10;;;;;;5117350;28;20038;-71
2021/06/19 06:11:24;;;;;;;10.05;6.97;;;25.10;78.50;;;;;;5117651;28;20032;-70
2021/06/19 06:13:49;;;;;;;8.10;6.80;;;25.10;77.90;;;;;;5117166;28;20504;-71
2021/06/19 06:16:15;;;;;;;7.93;7.03;;;25.20;78.40;;;;;;5116863;28;20059;-71
2021/06/19 06:18:41;;;;;;;8.18;7.35;;;25.50;77.40;;;;;;5117308;28;20103;-71
2021/06/19 06:21:07;;;;;;;8.68;7.35;;;25.90;76.30;;;;;;5117246;28;20032;-71
2021/06/19 06:23:33;;;;;;;8.90;7.35;;;26.40;74.60;;;;;;5116906;28;20035;-71
2021/06/19 06:26:00;;;;;;;12.43;7.82;;;26.90;72.50;;;;;;5116830;28;20416;-71
2021/06/19 06:28:26;;;;;;;7.43;6.07;;;27.30;72.60;;;;;;5117206;28;20023;-71
2021/06/19 06:30:52;;;;;;;9.43;8.35;;;27.50;72.90;;;;;;5116622;28;20393;-71
2021/06/19 06:33:20;;;;;;;8.45;7.55;;;27.70;72.10;;;;;;5117132;28;20058;-71
2021/06/19 06:35:45;;;;;;;9.02;8.13;;;27.60;72.90;;;;;;5117016;28;20048;-71
2021/06/19 06:38:11;;;;;;;7.43;6.72;;;27.80;71.50;;;;;;5117124;28;20047;-71
2021/06/19 06:40:37;;;;;;;11.88;9.00;;;28.20;70.40;;;;;;5116767;28;20027;-71
2021/06/19 06:43:03;;;;;;;9.65;8.60;;;28.40;69.20;;;;;;5116772;28;20073;-71
2021/06/19 06:45:28;;;;;;;10.77;8.73;;;28.40;69.00;;;;;;5117045;28;20038;-71
2021/06/19 06:47:54;;;;;;;12.57;9.52;;;28.40;69.90;;;;;;5116689;28;20032;-70
2021/06/19 06:50:21;;;;;;;11.90;8.98;;;28.60;69.30;;;;;;5117023;28;20046;-70
2021/06/19 06:52:47;;;;;;;9.15;8.25;;;28.60;69.30;;;;;;5116963;28;20024;-71
2021/06/19 06:55:13;;;;;;;10.15;9.15;;;28.40;69.10;;;;;;5116836;28;20042;-71
2021/06/19 06:57:39;;;;;;;9.30;8.30;;;28.40;69.00;;;;;;5116958;28;20026;-71
2021/06/19 07:00:06;;;;;;;10.57;9.02;;;28.40;70.10;;;;;;5116893;28;20023;-71
2021/06/19 07:02:31;;;;;;;11.18;8.02;;;28.60;69.90;;;;;;5116876;28;20089;-71
2021/06/19 07:04:58;;;;;;;9.05;8.25;;;28.60;69.60;;;;;;5116895;28;20058;-71
2021/06/19 07:07:23;;;;;;;10.60;7.57;;;28.60;69.40;;;;;;5118125;28;20027;-71
2021/06/19 07:09:49;;;;;;;10.20;8.52;;;28.70;69.90;;;;;;5120254;28;20404;-70
2021/06/19 07:12:15;;;;;;;11.13;8.82;;;28.80;69.10;;;;;;5120190;27;20019;-70
2021/06/19 07:14:40;;;;;;;9.32;8.40;;;28.80;69.70;;;;;;5120666;28;20041;-71
2021/06/19 07:17:07;;;;;;;9.65;8.65;;;28.80;68.20;;;;;;5120029;28;20030;-71
2021/06/19 07:19:34;;;;;;;12.65;8.27;;;28.90;68.80;;;;;;5120352;28;20081;-70
2021/06/19 07:21:59;;;;;;;8.27;7.25;;;28.90;67.70;;;;;;5120003;28;20423;-71
2021/06/19 07:24:25;;;;;;;10.60;7.93;;;28.90;67.40;;;;;;5119969;28;20058;-70
2021/06/19 07:26:51;;;;;;;9.52;8.43;;;29.40;67.70;;;;;;5120172;28;20110;-71
2021/06/19 07:29:17;;;;;;;11.18;7.30;;;29.60;66.60;;;;;;5119841;28;20110;-70
2021/06/19 07:31:43;;;;;;;8.07;6.95;;;29.50;68.90;;;;;;5119636;28;20044;-71
2021/06/19 07:34:09;;;;;;;9.23;7.57;;;29.60;68.10;;;;;;5119791;28;20028;-71
2021/06/19 07:36:35;;;;;;;11.13;8.60;;;29.50;67.90;;;;;;5119600;28;20031;-70
2021/06/19 07:39:00;;;;;;;9.48;8.18;;;29.40;68.10;;;;;;5119986;28;20023;-70
2021/06/19 07:41:26;;;;;;;9.20;8.18;;;29.50;67.90;;;;;;5119665;28;20103;-71
2021/06/19 07:43:53;;;;;;;7.78;6.88;;;29.60;67.80;;;;;;5119843;28;20122;-71
2021/06/19 07:46:18;;;;;;;9.23;7.97;;;29.70;68.20;;;;;;5119586;28;20404;-71
2021/06/19 07:48:44;;;;;;;10.60;9.50;;;29.70;67.20;;;;;;5119461;28;20072;-71
2021/06/19 07:51:10;;;;;;;9.18;7.68;;;29.60;66.80;;;;;;5119428;28;20103;-71
2021/06/19 07:53:35;;;;;;;9.40;8.50;;;29.70;67.10;;;;;;5119726;28;20092;-70
2021/06/19 07:56:01;;;;;;;10.82;8.52;;;29.50;66.80;;;;;;5119504;28;20445;-70
2021/06/19 07:58:27;;;;;;;8.68;7.88;;;29.50;67.80;;;;;;5119289;28;20311;-71
2021/06/19 08:00:53;;;;;;;10.93;8.75;;;29.20;66.70;;;;;;5119573;27;20141;-71
2021/06/19 08:03:18;;;;;;;11.07;9.43;;;29.30;68.70;;;;;;5119180;28;20028;-70
2021/06/19 08:05:44;;;;;;;9.60;8.70;;;29.50;66.70;;;;;;5119472;28;20031;-71
2021/06/19 08:08:10;;;;;;;10.82;8.90;;;29.40;66.10;;;;;;5119136;27;20407;-71
2021/06/19 08:10:35;;;;;;;10.02;8.98;;;29.60;66.00;;;;;;5119367;28;20030;-71
2021/06/19 08:13:01;;;;;;;11.95;9.50;;;29.80;65.40;;;;;;5119246;28;20115;-70
2021/06/19 08:15:27;;;;;;;10.98;9.10;;;29.80;64.80;;;;;;5118872;28;20373;-71
2021/06/19 08:17:54;;;;;;;12.65;9.73;;;30.00;65.10;;;;;;5118528;28;20035;-70
2021/06/19 08:20:19;;;;;;;11.63;9.77;;;29.90;65.40;;;;;;5119193;28;20050;-70
2021/06/19 08:22:47;;;;;;;11.93;8.07;;;29.80;65.70;;;;;;5118800;28;20026;-71
2021/06/19 08:25:12;;;;;;;10.65;8.60;;;30.10;65.70;;;;;;5118687;28;20030;-70
2021/06/19 08:27:38;;;;;;;8.60;7.70;;;30.10;66.10;;;;;;5118738;28;20023;-70
2021/06/19 08:30:08;;;;;;;11.45;8.73;;;30.30;64.70;;;;;;5118558;28;20046;-71
2021/06/19 08:32:34;;;;;;;10.75;8.73;;;30.60;62.20;;;;;;5118610;28;20023;-71
2021/06/19 08:34:59;;;;;;;10.48;9.05;;;30.40;63.70;;;;;;5118756;28;20030;-70
2021/06/19 08:37:25;;;;;;;13.80;8.32;;;30.40;65.10;;;;;;5118838;28;20023;-70
2021/06/19 08:39:51;;;;;;;11.63;9.57;;;30.50;64.10;;;;;;5118498;28;20019;-71
2021/06/19 08:42:17;;;;;;;10.35;8.05;;;30.30;63.50;;;;;;5118714;28;20027;-71
2021/06/19 08:44:45;;;;;;;10.40;8.98;;;30.30;64.60;;;;;;5118938;28;20102;-71
2021/06/19 08:47:12;;;;;;;8.68;7.65;;;30.20;62.80;;;;;;5118574;28;20031;-71
2021/06/19 08:49:38;;;;;;;10.05;8.18;;;30.70;65.10;;;;;;5118275;28;20023;-71
2021/06/19 08:52:04;;;;;;;11.35;9.18;;;30.80;65.40;;;;;;5118550;28;20027;-70
2021/06/19 08:54:38;;;;;;;9.50;8.48;;;30.90;60.70;;;;;;5118569;28;20023;-71
2021/06/19 08:57:09;;;;;;;19.80;8.43;;;30.90;62.10;;;;;;5118378;28;20031;-71
2021/06/19 08:59:36;;;;;;;10.63;9.55;;;31.00;63.50;;;;;;5118079;28;20031;-71
2021/06/19 09:02:03;;;;;;;10.65;8.60;;;31.10;60.70;;;;;;5118323;28;20028;-71
2021/06/19 09:04:28;;;;;;;12.75;9.45;;;31.10;62.60;;;;;;5118108;28;20020;-71
2021/06/19 09:06:54;;;;;;;9.77;7.90;;;31.30;61.90;;;;;;5117913;28;20031;-71
2021/06/19 09:09:20;;;;;;;9.82;8.38;;;31.50;61.80;;;;;;5117927;28;20020;-71
2021/06/19 09:11:48;;;;;;;10.27;8.65;;;31.40;63.90;;;;;;5118220;28;20024;-71
2021/06/19 09:14:16;;;;;;;11.25;9.45;;;31.60;61.40;;;;;;5118278;28;20039;-70
2021/06/19 09:16:43;;;;;;;13.18;7.97;;;31.70;60.50;;;;;;5117602;28;20031;-70
2021/06/19 09:19:43;;;;;;;9.32;8.50;;;32.00;58.90;;;;;;5118045;28;20312;-71
2021/06/19 09:22:19;;;;;;;11.35;9.65;;;32.40;59.00;;;;;;5084230;28;20035;-70
2021/06/19 09:24:49;;;;;;;13.55;10.57;;;32.50;59.00;;;;;;5117638;28;20016;-70
2021/06/19 09:27:38;;;;;;;9.73;8.10;;;32.70;59.00;;;;;;5117957;28;20028;-71
2021/06/19 09:30:10;;;;;;;13.93;8.73;;;32.80;60.60;;;;;;5116932;28;20054;-71
2021/06/19 09:32:42;;;;;;;10.50;7.07;;;32.80;62.00;;;;;;5117571;28;20420;-70
2021/06/19 09:35:24;;;;;;;14.32;9.45;;;32.90;62.40;;;;;;5117363;28;20450;-70
2021/06/19 09:37:55;;;;;;;10.20;8.60;;;33.10;59.30;;;;;;5117935;28;20030;-71
2021/06/19 09:40:25;;;;;;;10.52;9.45;;;32.90;58.60;;;;;;5117704;28;20047;-70
2021/06/19 09:42:52;;;;;;;11.57;10.02;;;32.70;58.90;;;;;;5117327;28;20031;-70
2021/06/19 09:45:21;;;;;;;10.88;9.77;;;32.90;58.20;;;;;;5118120;28;20051;-71
2021/06/19 09:47:48;;;;;;;12.00;9.48;;;32.90;59.60;;;;;;5117356;28;20019;-71
2021/06/19 09:50:13;;;;;;;11.15;8.60;;;32.80;59.60;;;;;;5117575;28;20311;-71
2021/06/19 09:52:39;;;;;;;13.27;9.35;;;32.70;61.30;;;;;;5117532;28;20054;-71
2021/06/19 09:55:11;;;;;;;11.77;8.52;;;32.80;59.30;;;;;;5117445;28;20308;-70
2021/06/19 09:57:41;;;;;;;10.55;9.40;;;33.00;58.50;;;;;;5117284;28;20416;-71
2021/06/19 10:00:09;;;;;;;10.38;7.60;;;32.90;58.60;;;;;;5116120;28;20020;-71
2021/06/19 10:02:35;;;;;;;9.20;7.47;;;32.90;61.90;;;;;;5117115;28;20103;-71
2021/06/19 10:05:01;;;;;;;10.93;9.82;;;33.20;60.70;;;;;;5117427;28;20052;-70
2021/06/19 10:07:30;;;;;;;9.30;8.43;;;33.10;55.80;;;;;;5117123;28;20080;-71
2021/06/19 10:09:58;;;;;;;16.33;9.43;;;33.20;59.30;;;;;;5117365;28;20300;-71
2021/06/19 10:12:29;;;;;;;11.15;8.93;;;33.10;59.10;;;;;;5116981;28;20063;-71
2021/06/19 10:15:04;;;;;;;14.85;10.35;;;33.10;60.30;;;;;;5116870;28;20383;-70
2021/06/19 10:17:35;;;;;;;8.65;6.43;;;33.10;58.70;;;;;;5110832;28;20035;-71
2021/06/19 10:20:04;;;;;;;12.10;8.55;;;33.20;63.00;;;;;;5105839;28;20379;-71
2021/06/19 10:22:32;;;;;;;7.80;7.00;;;33.20;59.10;;;;;;5096487;28;20020;-70
2021/06/19 10:25:02;;;;;;;9.73;8.80;;;33.20;60.20;;;;;;5096819;28;20032;-70
2021/06/19 10:27:29;;;;;;;10.18;9.18;;;33.10;59.10;;;;;;5097131;28;20028;-70
2021/06/19 10:29:57;;;;;;;8.88;7.95;;;33.10;58.60;;;;;;5096335;28;20059;-70
2021/06/19 10:32:47;;;;;;;11.50;8.88;;;33.10;58.00;;;;;;5096803;28;20016;-70
2021/06/19 10:35:18;;;;;;;11.93;9.82;;;33.20;59.90;;;;;;5096500;28;20301;-70
2021/06/19 10:37:45;;;;;;;10.32;8.30;;;33.20;59.40;;;;;;5096771;28;20020;-70
2021/06/19 10:40:29;;;;;;;10.57;7.07;;;33.20;61.00;;;;;;5096701;28;20020;-70
2021/06/19 10:43:13;;;;;;;8.57;7.32;;;33.30;60.20;;;;;;5100553;28;20024;-70
2021/06/19 10:45:43;;;;;;;9.77;6.95;;;33.30;59.10;;;;;;5100618;28;20032;-70
2021/06/19 10:48:12;;;;;;;9.38;8.48;;;33.20;61.40;;;;;;5100345;28;20027;-70
2021/06/19 10:50:40;;;;;;;10.05;8.18;;;32.90;59.50;;;;;;5100517;28;20054;-70
2021/06/19 10:53:16;;;;;;;7.72;6.80;;;32.80;59.20;;;;;;5100167;28;20370;-70
2021/06/19 10:55:42;;;;;;;12.00;8.85;;;32.40;62.40;;;;;;5100346;28;20073;-70
2021/06/19 10:58:23;;;;;;;9.02;7.30;;;32.10;61.00;;;;;;5100543;28;20308;-70
2021/06/19 11:00:57;;;;;;;9.23;7.07;;;31.90;64.80;;;;;;5100385;28;20316;-69
2021/06/19 11:03:48;;;;;;;10.47;9.37;;;32.20;64.10;;;;;;5099979;28;20062;-70
2021/06/19 11:06:20;;;;;;;10.90;9.80;;;32.60;59.70;;;;;;5100199;28;20258;-70
2021/06/19 11:09:03;;;;;;;9.02;8.25;;;32.80;58.00;;;;;;5098876;28;20089;-69
2021/06/19 11:11:50;;;;;;;11.20;8.65;;;32.90;60.20;;;;;;5100140;28;20032;-70
2021/06/19 11:14:41;;;;;;;11.40;8.30;;;32.80;60.50;;;;;;5100126;28;20399;-70
2021/06/19 11:17:32;;;;;;;11.10;9.90;;;32.70;61.60;;;;;;5099901;28;20024;-70
2021/06/19 11:20:08;;;;;;;11.40;9.43;;;32.80;59.90;;;;;;5088712;28;20028;-70
2021/06/19 11:22:40;;;;;;;12.15;8.55;;;32.80;61.10;;;;;;5099886;28;20076;-70
2021/06/19 11:25:37;;;;;;;12.95;9.27;;;32.70;62.30;;;;;;5099837;28;20028;-70
2021/06/19 11:28:22;;;;;;;10.55;8.70;;;32.60;62.20;;;;;;5099820;28;20374;-70
2021/06/19 11:30:51;;;;;;;11.15;9.57;;;32.60;61.20;;;;;;5098966;28;20052;-70
2021/06/19 11:33:20;;;;;;;13.40;10.32;;;32.50;59.60;;;;;;5099691;28;20020;-70
2021/06/19 11:35:48;;;;;;;9.38;8.48;;;32.10;59.80;;;;;;5099597;28;20137;-70
2021/06/19 11:38:14;;;;;;;10.80;7.60;;;31.60;64.40;;;;;;5099610;28;20023;-70
2021/06/19 11:40:42;;;;;;;10.88;9.23;;;31.70;68.10;;;;;;5099536;28;20078;-70
2021/06/19 11:43:09;;;;;;;11.45;10.00;;;31.90;65.40;;;;;;5099266;28;20427;-70
2021/06/19 11:45:37;;;;;;;10.02;8.95;;;32.00;62.70;;;;;;5099195;28;20431;-70
2021/06/19 11:48:09;;;;;;;10.32;8.60;;;31.90;64.10;;;;;;5099113;28;20032;-70
2021/06/19 11:50:37;;;;;;;9.60;8.60;;;31.50;63.40;;;;;;5099034;28;20099;-70
2021/06/19 11:53:28;;;;;;;12.68;8.55;;;31.50;66.30;;;;;;5098224;28;20034;-70
2021/06/19 11:56:10;;;;;;;10.23;9.23;;;31.60;65.50;;;;;;5098870;28;20032;-70
2021/06/19 11:58:48;;;;;;;11.00;9.93;;;31.50;66.00;;;;;;5099236;28;20344;-70
2021/06/19 12:01:15;;;;;;;9.38;6.88;;;31.50;64.20;;;;;;5098890;28;20404;-70
2021/06/19 12:03:41;;;;;;;9.25;8.20;;;31.40;68.70;;;;;;5099176;28;20024;-69
2021/06/19 12:06:07;;;;;;;11.45;8.88;;;31.30;67.10;;;;;;5098748;28;20469;-70
2021/06/19 12:08:33;;;;;;;11.23;9.00;;;31.20;67.10;;;;;;5099010;28;20099;-70
2021/06/19 12:11:00;;;;;;;11.02;9.75;;;31.00;67.60;;;;;;5098989;28;20036;-69
2021/06/19 12:13:55;;;;;;;11.57;9.25;;;30.80;65.10;;;;;;5098748;28;20032;-70
2021/06/19 12:16:31;;;;;;;12.02;10.82;;;30.70;68.00;;;;;;5081380;28;20440;-70
2021/06/19 12:19:01;;;;;;;11.20;8.35;;;30.40;66.10;;;;;;5098422;28;20023;-70
2021/06/19 12:21:32;;;;;;;11.10;9.65;;;30.30;70.40;;;;;;5098792;28;20028;-70
2021/06/19 12:23:59;;;;;;;11.43;9.20;;;30.50;67.00;;;;;;5098791;28;20043;-70
2021/06/19 12:26:25;;;;;;;12.05;9.70;;;30.60;69.30;;;;;;5098342;28;20020;-70
2021/06/19 12:28:51;;;;;;;11.73;8.88;;;30.70;66.60;;;;;;5098632;28;20097;-70
2021/06/19 12:31:22;;;;;;;11.93;9.15;;;30.70;69.90;;;;;;5098066;28;20440;-70
2021/06/19 12:33:59;;;;;;;9.40;8.45;;;30.80;66.60;;;;;;5098242;28;20026;-70
2021/06/19 12:36:25;;;;;;;12.32;9.18;;;30.90;71.40;;;;;;5098000;28;20028;-70
2021/06/19 12:38:51;;;;;;;11.10;9.90;;;30.90;69.30;;;;;;5098454;28;20028;-70
2021/06/19 12:41:17;;;;;;;11.75;8.77;;;30.60;67.30;;;;;;5098112;28;20020;-70
2021/06/19 12:44:09;;;;;;;12.55;9.68;;;30.40;69.20;;;;;;5098461;28;20032;-70
2021/06/19 12:46:34;;;;;;;9.43;8.43;;;30.40;67.50;;;;;;5098306;28;20081;-70
2021/06/19 12:49:05;;;;;;;11.30;8.60;;;30.30;68.20;;;;;;5097946;28;20024;-70